sensor_id;sensor_type;location;lat;lon;timestamp;P1;durP1;ratioP1;P2;durP2;ratioP2
29550;SDS011;16488;52.396;10.696;2023-01-28T00:01:41;6.97;;;2.92;;
29550;SDS011;16488;52.396;10.696;2023-01-28T00:04:07;7.45;;;3.00;;
29550;SDS011;16488;52.396;10.696;2023-01-28T00:06:33;6.05;;;2.42;;
29550;SDS011;16488;52.396;10.696;2023-01-28T00:08:59;6.88;;;2.20;;
29550;SDS011;16488;52.396;10.696;2023-01-28T00:11:24;5.57;;;2.53;;
29550;SDS011;16488;52.396;10.696;2023-01-28T00:13:50;8.40;;;2.75;;
29550;SDS011;16488;52.396;10.696;2023-01-28T00:16:17;5.07;;;1.80;;
29550;SDS011;16488;52.396;10.696;2023-01-28T00:18:43;8.68;;;2.35;;
29550;SDS011;16488;52.396;10.696;2023-01-28T00:21:09;7.28;;;2.60;;
29550;SDS011;16488;52.396;10.696;2023-01-28T00:23:37;6.85;;;2.88;;
29550;SDS011;16488;52.396;10.696;2023-01-28T00:26:06;5.70;;;2.80;;
29550;SDS011;16488;52.396;10.696;2023-01-28T00:28:33;7.22;;;2.10;;
29550;SDS011;16488;52.396;10.696;2023-01-28T00:31:09;8.15;;;2.22;;
29550;SDS011;16488;52.396;10.696;2023-01-28T00:33:41;6.07;;;2.00;;
29550;SDS011;16488;52.396;10.696;2023-01-28T00:36:07;3.83;;;2.10;;
29550;SDS011;16488;52.396;10.696;2023-01-28T00:38:33;7.68;;;3.08;;
29550;SDS011;16488;52.396;10.696;2023-01-28T00:43:35;8.35;;;3.38;;
29550;SDS011;16488;52.396;10.696;2023-01-28T00:46:02;12.45;;;3.25;;
29550;SDS011;16488;52.396;10.696;2023-01-28T00:48:31;10.00;;;2.70;;
29550;SDS011;16488;52.396;10.696;2023-01-28T00:50:57;3.72;;;2.80;;
29550;SDS011;16488;52.396;10.696;2023-01-28T00:53:23;4.25;;;2.10;;
29550;SDS011;16488;52.396;10.696;2023-01-28T00:55:49;6.00;;;2.60;;
29550;SDS011;16488;52.396;10.696;2023-01-28T00:58:15;9.25;;;3.38;;
29550;SDS011;16488;52.396;10.696;2023-01-28T01:00:40;13.90;;;2.42;;
29550;SDS011;16488;52.396;10.696;2023-01-28T01:03:06;7.40;;;3.08;;
29550;SDS011;16488;52.396;10.696;2023-01-28T01:05:32;9.32;;;2.25;;
29550;SDS011;16488;52.396;10.696;2023-01-28T01:07:58;8.77;;;2.35;;
29550;SDS011;16488;52.396;10.696;2023-01-28T01:12:50;4.30;;;2.75;;
29550;SDS011;16488;52.396;10.696;2023-01-28T01:15:16;5.53;;;2.67;;
29550;SDS011;16488;52.396;10.696;2023-01-28T01:17:43;4.05;;;2.60;;
29550;SDS011;16488;52.396;10.696;2023-01-28T01:22:42;5.78;;;2.58;;
29550;SDS011;16488;52.396;10.696;2023-01-28T01:25:08;3.75;;;2.13;;
29550;SDS011;16488;52.396;10.696;2023-01-28T01:27:35;6.88;;;2.38;;
29550;SDS011;16488;52.396;10.696;2023-01-28T01:30:01;6.88;;;2.70;;
29550;SDS011;16488;52.396;10.696;2023-01-28T01:32:30;3.47;;;2.50;;
29550;SDS011;16488;52.396;10.696;2023-01-28T01:34:56;6.55;;;2.60;;
29550;SDS011;16488;52.396;10.696;2023-01-28T01:39:48;7.55;;;2.28;;
29550;SDS011;16488;52.396;10.696;2023-01-28T01:42:13;5.03;;;2.03;;
29550;SDS011;16488;52.396;10.696;2023-01-28T01:47:34;4.43;;;2.38;;
29550;SDS011;16488;52.396;10.696;2023-01-28T01:52:51;7.60;;;2.40;;
29550;SDS011;16488;52.396;10.696;2023-01-28T01:55:22;7.07;;;2.83;;
29550;SDS011;16488;52.396;10.696;2023-01-28T01:57:52;8.63;;;3.20;;
29550;SDS011;16488;52.396;10.696;2023-01-28T02:00:19;9.10;;;2.38;;
29550;SDS011;16488;52.396;10.696;2023-01-28T02:02:46;3.55;;;2.55;;
29550;SDS011;16488;52.396;10.696;2023-01-28T02:05:14;5.40;;;2.50;;
29550;SDS011;16488;52.396;10.696;2023-01-28T02:07:42;3.30;;;2.70;;
29550;SDS011;16488;52.396;10.696;2023-01-28T02:10:09;5.20;;;2.20;;
29550;SDS011;16488;52.396;10.696;2023-01-28T02:12:36;6.57;;;2.78;;
29550;SDS011;16488;52.396;10.696;2023-01-28T02:15:16;7.57;;;3.13;;
29550;SDS011;16488;52.396;10.696;2023-01-28T02:17:44;8.38;;;3.08;;
29550;SDS011;16488;52.396;10.696;2023-01-28T02:20:11;5.70;;;2.25;;
29550;SDS011;16488;52.396;10.696;2023-01-28T02:36:56;3.80;;;2.33;;
29550;SDS011;16488;52.396;10.696;2023-01-28T02:39:29;10.77;;;2.33;;
29550;SDS011;16488;52.396;10.696;2023-01-28T02:42:17;5.03;;;2.15;;
29550;SDS011;16488;52.396;10.696;2023-01-28T02:44:46;5.07;;;2.35;;
29550;SDS011;16488;52.396;10.696;2023-01-28T02:49:58;7.03;;;2.50;;
29550;SDS011;16488;52.396;10.696;2023-01-28T02:55:56;7.88;;;2.35;;
29550;SDS011;16488;52.396;10.696;2023-01-28T02:58:29;9.25;;;2.28;;
29550;SDS011;16488;52.396;10.696;2023-01-28T03:04:07;5.25;;;2.20;;
29550;SDS011;16488;52.396;10.696;2023-01-28T03:06:46;5.47;;;1.83;;
29550;SDS011;16488;52.396;10.696;2023-01-28T03:09:16;3.78;;;2.03;;
29550;SDS011;16488;52.396;10.696;2023-01-28T03:11:50;3.20;;;1.88;;
29550;SDS011;16488;52.396;10.696;2023-01-28T03:14:39;7.50;;;2.55;;
29550;SDS011;16488;52.396;10.696;2023-01-28T03:17:31;6.90;;;2.40;;
29550;SDS011;16488;52.396;10.696;2023-01-28T03:20:22;8.35;;;1.98;;
29550;SDS011;16488;52.396;10.696;2023-01-28T03:23:10;5.07;;;2.75;;
29550;SDS011;16488;52.396;10.696;2023-01-28T03:26:00;9.48;;;2.03;;
29550;SDS011;16488;52.396;10.696;2023-01-28T03:28:46;2.60;;;1.90;;
29550;SDS011;16488;52.396;10.696;2023-01-28T03:31:33;6.65;;;2.15;;
29550;SDS011;16488;52.396;10.696;2023-01-28T03:34:19;4.20;;;2.30;;
29550;SDS011;16488;52.396;10.696;2023-01-28T03:37:05;4.22;;;1.80;;
29550;SDS011;16488;52.396;10.696;2023-01-28T03:39:32;5.55;;;1.92;;
29550;SDS011;16488;52.396;10.696;2023-01-28T03:44:24;8.05;;;2.42;;
29550;SDS011;16488;52.396;10.696;2023-01-28T03:50:31;7.07;;;2.10;;
29550;SDS011;16488;52.396;10.696;2023-01-28T03:52:56;4.93;;;2.45;;
29550;SDS011;16488;52.396;10.696;2023-01-28T03:55:35;6.65;;;2.08;;
29550;SDS011;16488;52.396;10.696;2023-01-28T03:58:01;3.38;;;1.90;;
29550;SDS011;16488;52.396;10.696;2023-01-28T04:00:28;5.00;;;1.83;;
29550;SDS011;16488;52.396;10.696;2023-01-28T04:02:53;3.28;;;2.08;;
29550;SDS011;16488;52.396;10.696;2023-01-28T04:05:19;3.05;;;1.95;;
29550;SDS011;16488;52.396;10.696;2023-01-28T04:07:44;4.55;;;1.85;;
29550;SDS011;16488;52.396;10.696;2023-01-28T04:10:10;5.47;;;1.85;;
29550;SDS011;16488;52.396;10.696;2023-01-28T04:12:35;2.25;;;1.75;;
29550;SDS011;16488;52.396;10.696;2023-01-28T04:15:02;3.78;;;2.33;;
29550;SDS011;16488;52.396;10.696;2023-01-28T04:17:39;6.05;;;2.85;;
29550;SDS011;16488;52.396;10.696;2023-01-28T04:20:11;5.55;;;2.00;;
29550;SDS011;16488;52.396;10.696;2023-01-28T04:22:37;4.95;;;2.53;;
29550;SDS011;16488;52.396;10.696;2023-01-28T04:25:03;3.83;;;1.80;;
29550;SDS011;16488;52.396;10.696;2023-01-28T04:29:55;3.97;;;2.38;;
29550;SDS011;16488;52.396;10.696;2023-01-28T04:32:20;3.40;;;1.95;;
29550;SDS011;16488;52.396;10.696;2023-01-28T04:34:46;5.00;;;1.85;;
29550;SDS011;16488;52.396;10.696;2023-01-28T04:37:11;3.63;;;2.03;;
29550;SDS011;16488;52.396;10.696;2023-01-28T04:39:37;5.20;;;1.67;;
29550;SDS011;16488;52.396;10.696;2023-01-28T04:42:03;5.70;;;1.60;;
29550;SDS011;16488;52.396;10.696;2023-01-28T04:44:28;4.40;;;1.95;;
29550;SDS011;16488;52.396;10.696;2023-01-28T04:46:54;7.82;;;1.92;;
29550;SDS011;16488;52.396;10.696;2023-01-28T04:49:20;4.13;;;1.92;;
29550;SDS011;16488;52.396;10.696;2023-01-28T04:51:45;8.57;;;2.05;;
29550;SDS011;16488;52.396;10.696;2023-01-28T04:54:11;7.93;;;3.63;;
29550;SDS011;16488;52.396;10.696;2023-01-28T04:56:36;7.88;;;3.15;;
29550;SDS011;16488;52.396;10.696;2023-01-28T04:59:02;3.67;;;1.83;;
29550;SDS011;16488;52.396;10.696;2023-01-28T05:01:28;2.45;;;1.50;;
29550;SDS011;16488;52.396;10.696;2023-01-28T05:03:53;5.88;;;1.50;;
29550;SDS011;16488;52.396;10.696;2023-01-28T05:06:19;2.17;;;1.55;;
29550;SDS011;16488;52.396;10.696;2023-01-28T05:08:45;3.72;;;1.42;;
29550;SDS011;16488;52.396;10.696;2023-01-28T05:11:11;3.90;;;1.80;;
29550;SDS011;16488;52.396;10.696;2023-01-28T05:13:37;4.30;;;1.80;;
29550;SDS011;16488;52.396;10.696;2023-01-28T05:16:03;4.60;;;2.83;;
29550;SDS011;16488;52.396;10.696;2023-01-28T05:20:55;3.30;;;1.52;;
29550;SDS011;16488;52.396;10.696;2023-01-28T05:23:21;1.60;;;1.50;;
29550;SDS011;16488;52.396;10.696;2023-01-28T05:25:46;4.07;;;1.70;;
29550;SDS011;16488;52.396;10.696;2023-01-28T05:28:12;2.85;;;1.35;;
29550;SDS011;16488;52.396;10.696;2023-01-28T05:30:38;6.28;;;1.52;;
29550;SDS011;16488;52.396;10.696;2023-01-28T05:33:03;1.95;;;1.73;;
29550;SDS011;16488;52.396;10.696;2023-01-28T05:35:29;3.95;;;1.92;;
29550;SDS011;16488;52.396;10.696;2023-01-28T05:37:55;4.55;;;2.00;;
29550;SDS011;16488;52.396;10.696;2023-01-28T05:40:20;3.42;;;1.92;;
29550;SDS011;16488;52.396;10.696;2023-01-28T05:42:46;3.95;;;1.70;;
29550;SDS011;16488;52.396;10.696;2023-01-28T05:45:12;2.67;;;2.03;;
29550;SDS011;16488;52.396;10.696;2023-01-28T05:47:37;1.98;;;1.60;;
29550;SDS011;16488;52.396;10.696;2023-01-28T05:50:04;3.83;;;2.53;;
29550;SDS011;16488;52.396;10.696;2023-01-28T05:52:30;2.40;;;1.80;;
29550;SDS011;16488;52.396;10.696;2023-01-28T05:54:56;2.92;;;2.17;;
29550;SDS011;16488;52.396;10.696;2023-01-28T05:57:22;4.45;;;2.10;;
29550;SDS011;16488;52.396;10.696;2023-01-28T05:59:47;5.93;;;1.85;;
29550;SDS011;16488;52.396;10.696;2023-01-28T06:02:13;7.63;;;1.98;;
29550;SDS011;16488;52.396;10.696;2023-01-28T06:04:38;2.00;;;1.63;;
29550;SDS011;16488;52.396;10.696;2023-01-28T06:07:04;2.78;;;1.55;;
29550;SDS011;16488;52.396;10.696;2023-01-28T06:09:30;2.53;;;1.60;;
29550;SDS011;16488;52.396;10.696;2023-01-28T06:11:55;3.05;;;1.60;;
29550;SDS011;16488;52.396;10.696;2023-01-28T06:14:21;2.10;;;1.88;;
29550;SDS011;16488;52.396;10.696;2023-01-28T06:16:46;3.78;;;2.30;;
29550;SDS011;16488;52.396;10.696;2023-01-28T06:19:12;1.75;;;1.52;;
29550;SDS011;16488;52.396;10.696;2023-01-28T06:21:37;2.10;;;1.77;;
29550;SDS011;16488;52.396;10.696;2023-01-28T06:24:03;5.85;;;1.80;;
29550;SDS011;16488;52.396;10.696;2023-01-28T06:26:29;2.20;;;1.67;;
29550;SDS011;16488;52.396;10.696;2023-01-28T06:28:54;7.85;;;2.20;;
29550;SDS011;16488;52.396;10.696;2023-01-28T06:31:20;4.72;;;1.90;;
29550;SDS011;16488;52.396;10.696;2023-01-28T06:33:45;6.20;;;2.55;;
29550;SDS011;16488;52.396;10.696;2023-01-28T06:36:12;3.97;;;2.75;;
29550;SDS011;16488;52.396;10.696;2023-01-28T06:41:07;2.40;;;1.70;;
29550;SDS011;16488;52.396;10.696;2023-01-28T06:43:32;6.03;;;1.63;;
29550;SDS011;16488;52.396;10.696;2023-01-28T06:45:58;17.40;;;2.60;;
29550;SDS011;16488;52.396;10.696;2023-01-28T06:48:25;4.82;;;1.80;;
29550;SDS011;16488;52.396;10.696;2023-01-28T06:50:51;11.98;;;2.30;;
29550;SDS011;16488;52.396;10.696;2023-01-28T06:53:17;4.85;;;1.60;;
29550;SDS011;16488;52.396;10.696;2023-01-28T06:55:43;2.08;;;1.50;;
29550;SDS011;16488;52.396;10.696;2023-01-28T06:58:09;5.32;;;2.00;;
29550;SDS011;16488;52.396;10.696;2023-01-28T07:00:35;8.45;;;2.10;;
29550;SDS011;16488;52.396;10.696;2023-01-28T07:03:01;2.45;;;1.60;;
29550;SDS011;16488;52.396;10.696;2023-01-28T07:05:28;2.67;;;1.70;;
29550;SDS011;16488;52.396;10.696;2023-01-28T07:07:53;3.67;;;1.40;;
29550;SDS011;16488;52.396;10.696;2023-01-28T07:10:19;6.55;;;1.90;;
29550;SDS011;16488;52.396;10.696;2023-01-28T07:12:44;3.40;;;1.85;;
29550;SDS011;16488;52.396;10.696;2023-01-28T07:15:10;4.03;;;2.67;;
29550;SDS011;16488;52.396;10.696;2023-01-28T07:17:39;3.85;;;1.70;;
29550;SDS011;16488;52.396;10.696;2023-01-28T07:20:06;3.55;;;1.85;;
29550;SDS011;16488;52.396;10.696;2023-01-28T07:22:33;2.60;;;1.83;;
29550;SDS011;16488;52.396;10.696;2023-01-28T07:24:58;3.80;;;2.05;;
29550;SDS011;16488;52.396;10.696;2023-01-28T07:27:25;8.57;;;3.08;;
29550;SDS011;16488;52.396;10.696;2023-01-28T07:32:16;5.57;;;2.65;;
29550;SDS011;16488;52.396;10.696;2023-01-28T07:34:42;5.32;;;2.55;;
29550;SDS011;16488;52.396;10.696;2023-01-28T07:37:08;8.05;;;2.33;;
29550;SDS011;16488;52.396;10.696;2023-01-28T07:39:34;3.70;;;1.98;;
29550;SDS011;16488;52.396;10.696;2023-01-28T07:42:00;6.57;;;1.80;;
29550;SDS011;16488;52.396;10.696;2023-01-28T07:44:26;2.67;;;1.73;;
29550;SDS011;16488;52.396;10.696;2023-01-28T07:46:51;4.18;;;2.00;;
29550;SDS011;16488;52.396;10.696;2023-01-28T07:49:18;6.78;;;2.63;;
29550;SDS011;16488;52.396;10.696;2023-01-28T07:51:44;2.83;;;2.10;;
29550;SDS011;16488;52.396;10.696;2023-01-28T07:54:14;6.25;;;2.92;;
29550;SDS011;16488;52.396;10.696;2023-01-28T07:56:40;5.32;;;2.72;;
29550;SDS011;16488;52.396;10.696;2023-01-28T07:59:05;4.25;;;1.83;;
29550;SDS011;16488;52.396;10.696;2023-01-28T08:01:31;2.15;;;1.90;;
29550;SDS011;16488;52.396;10.696;2023-01-28T08:03:56;2.35;;;1.67;;
29550;SDS011;16488;52.396;10.696;2023-01-28T08:06:22;3.42;;;1.80;;
29550;SDS011;16488;52.396;10.696;2023-01-28T08:08:48;3.42;;;1.40;;
29550;SDS011;16488;52.396;10.696;2023-01-28T08:11:13;4.00;;;1.65;;
29550;SDS011;16488;52.396;10.696;2023-01-28T08:13:39;1.67;;;1.58;;
29550;SDS011;16488;52.396;10.696;2023-01-28T08:16:04;3.38;;;2.00;;
29550;SDS011;16488;52.396;10.696;2023-01-28T08:18:30;2.92;;;1.77;;
29550;SDS011;16488;52.396;10.696;2023-01-28T08:20:56;3.72;;;1.85;;
29550;SDS011;16488;52.396;10.696;2023-01-28T08:23:23;2.30;;;1.90;;
29550;SDS011;16488;52.396;10.696;2023-01-28T08:25:51;3.15;;;1.80;;
29550;SDS011;16488;52.396;10.696;2023-01-28T08:28:16;30.38;;;2.33;;
29550;SDS011;16488;52.396;10.696;2023-01-28T08:33:09;14.73;;;2.42;;
29550;SDS011;16488;52.396;10.696;2023-01-28T08:35:38;4.78;;;2.40;;
29550;SDS011;16488;52.396;10.696;2023-01-28T08:38:04;4.85;;;1.98;;
29550;SDS011;16488;52.396;10.696;2023-01-28T08:40:31;1.92;;;1.65;;
29550;SDS011;16488;52.396;10.696;2023-01-28T08:42:56;3.92;;;2.25;;
29550;SDS011;16488;52.396;10.696;2023-01-28T08:45:23;7.45;;;1.70;;
29550;SDS011;16488;52.396;10.696;2023-01-28T08:47:49;6.53;;;2.50;;
29550;SDS011;16488;52.396;10.696;2023-01-28T08:50:16;5.50;;;2.47;;
29550;SDS011;16488;52.396;10.696;2023-01-28T08:52:43;7.07;;;1.83;;
29550;SDS011;16488;52.396;10.696;2023-01-28T08:55:10;4.40;;;1.77;;
29550;SDS011;16488;52.396;10.696;2023-01-28T08:57:36;2.67;;;1.58;;
29550;SDS011;16488;52.396;10.696;2023-01-28T09:00:02;7.15;;;1.90;;
29550;SDS011;16488;52.396;10.696;2023-01-28T09:02:28;7.28;;;1.85;;
29550;SDS011;16488;52.396;10.696;2023-01-28T09:04:54;11.13;;;2.50;;
29550;SDS011;16488;52.396;10.696;2023-01-28T09:07:20;3.10;;;1.80;;
29550;SDS011;16488;52.396;10.696;2023-01-28T09:09:45;3.72;;;1.70;;
29550;SDS011;16488;52.396;10.696;2023-01-28T09:12:11;3.45;;;2.40;;
29550;SDS011;16488;52.396;10.696;2023-01-28T09:14:36;6.32;;;1.80;;
29550;SDS011;16488;52.396;10.696;2023-01-28T09:17:05;1.92;;;1.83;;
29550;SDS011;16488;52.396;10.696;2023-01-28T09:19:31;3.40;;;1.45;;
29550;SDS011;16488;52.396;10.696;2023-01-28T09:21:56;1.77;;;1.52;;
29550;SDS011;16488;52.396;10.696;2023-01-28T09:24:22;2.72;;;1.58;;
29550;SDS011;16488;52.396;10.696;2023-01-28T09:26:48;7.10;;;1.70;;
29550;SDS011;16488;52.396;10.696;2023-01-28T09:29:14;6.32;;;2.35;;
29550;SDS011;16488;52.396;10.696;2023-01-28T09:31:40;3.08;;;2.13;;
29550;SDS011;16488;52.396;10.696;2023-01-28T09:36:32;4.28;;;2.38;;
29550;SDS011;16488;52.396;10.696;2023-01-28T09:38:58;3.65;;;1.77;;
29550;SDS011;16488;52.396;10.696;2023-01-28T09:41:27;4.55;;;1.80;;
29550;SDS011;16488;52.396;10.696;2023-01-28T09:44:04;4.43;;;1.85;;
29550;SDS011;16488;52.396;10.696;2023-01-28T09:46:39;6.47;;;2.50;;
29550;SDS011;16488;52.396;10.696;2023-01-28T09:49:20;10.05;;;3.15;;
29550;SDS011;16488;52.396;10.696;2023-01-28T09:51:54;3.55;;;1.67;;
29550;SDS011;16488;52.396;10.696;2023-01-28T09:54:23;5.03;;;3.97;;
29550;SDS011;16488;52.396;10.696;2023-01-28T09:57:23;8.63;;;2.38;;
29550;SDS011;16488;52.396;10.696;2023-01-28T10:10:42;7.85;;;2.30;;
29550;SDS011;16488;52.396;10.696;2023-01-28T10:15:53;6.25;;;2.33;;
29550;SDS011;16488;52.396;10.696;2023-01-28T10:21:06;4.90;;;1.75;;
29550;SDS011;16488;52.396;10.696;2023-01-28T10:23:40;4.43;;;2.10;;
29550;SDS011;16488;52.396;10.696;2023-01-28T10:26:24;4.03;;;2.00;;
29550;SDS011;16488;52.396;10.696;2023-01-28T10:28:56;2.17;;;1.80;;
29550;SDS011;16488;52.396;10.696;2023-01-28T10:31:29;6.65;;;2.13;;
29550;SDS011;16488;52.396;10.696;2023-01-28T10:33:59;3.33;;;1.65;;
29550;SDS011;16488;52.396;10.696;2023-01-28T10:36:26;5.10;;;1.90;;
29550;SDS011;16488;52.396;10.696;2023-01-28T10:38:53;5.75;;;2.10;;
29550;SDS011;16488;52.396;10.696;2023-01-28T10:41:19;4.82;;;2.97;;
29550;SDS011;16488;52.396;10.696;2023-01-28T10:43:46;5.10;;;2.10;;
29550;SDS011;16488;52.396;10.696;2023-01-28T10:46:15;6.18;;;2.30;;
29550;SDS011;16488;52.396;10.696;2023-01-28T10:51:36;6.40;;;2.47;;
29550;SDS011;16488;52.396;10.696;2023-01-28T10:54:17;10.73;;;3.10;;
29550;SDS011;16488;52.396;10.696;2023-01-28T10:56:48;5.80;;;3.40;;
29550;SDS011;16488;52.396;10.696;2023-01-28T10:59:20;3.92;;;2.78;;
29550;SDS011;16488;52.396;10.696;2023-01-28T11:02:01;7.70;;;4.20;;
29550;SDS011;16488;52.396;10.696;2023-01-28T11:04:30;8.02;;;2.80;;
29550;SDS011;16488;52.396;10.696;2023-01-28T11:09:43;3.70;;;2.67;;
29550;SDS011;16488;52.396;10.696;2023-01-28T11:14:52;9.23;;;3.50;;
29550;SDS011;16488;52.396;10.696;2023-01-28T11:17:19;7.32;;;3.05;;
29550;SDS011;16488;52.396;10.696;2023-01-28T11:19:48;6.15;;;3.50;;
29550;SDS011;16488;52.396;10.696;2023-01-28T11:22:21;8.48;;;3.28;;
29550;SDS011;16488;52.396;10.696;2023-01-28T11:24:54;7.90;;;4.22;;
29550;SDS011;16488;52.396;10.696;2023-01-28T11:27:22;7.25;;;5.55;;
29550;SDS011;16488;52.396;10.696;2023-01-28T11:29:57;7.93;;;5.05;;
29550;SDS011;16488;52.396;10.696;2023-01-28T11:32:28;13.00;;;7.15;;
29550;SDS011;16488;52.396;10.696;2023-01-28T11:34:57;13.40;;;6.05;;
29550;SDS011;16488;52.396;10.696;2023-01-28T11:37:24;16.13;;;5.22;;
29550;SDS011;16488;52.396;10.696;2023-01-28T11:42:41;16.48;;;7.57;;
29550;SDS011;16488;52.396;10.696;2023-01-28T11:45:14;15.52;;;8.57;;
29550;SDS011;16488;52.396;10.696;2023-01-28T11:53:50;8.88;;;6.15;;
29550;SDS011;16488;52.396;10.696;2023-01-28T11:56:43;11.27;;;6.55;;
29550;SDS011;16488;52.396;10.696;2023-01-28T12:05:10;9.45;;;5.25;;
29550;SDS011;16488;52.396;10.696;2023-01-28T12:07:52;10.93;;;5.63;;
29550;SDS011;16488;52.396;10.696;2023-01-28T12:13:24;9.15;;;5.53;;
29550;SDS011;16488;52.396;10.696;2023-01-28T12:16:13;7.32;;;4.68;;
29550;SDS011;16488;52.396;10.696;2023-01-28T12:35:06;7.50;;;4.43;;
29550;SDS011;16488;52.396;10.696;2023-01-28T12:43:14;8.15;;;3.65;;
29550;SDS011;16488;52.396;10.696;2023-01-28T12:45:53;7.10;;;3.70;;
29550;SDS011;16488;52.396;10.696;2023-01-28T12:51:19;8.65;;;4.25;;
29550;SDS011;16488;52.396;10.696;2023-01-28T12:56:22;3.92;;;2.60;;
29550;SDS011;16488;52.396;10.696;2023-01-28T12:59:01;4.88;;;3.05;;
29550;SDS011;16488;52.396;10.696;2023-01-28T13:01:45;9.20;;;2.92;;
29550;SDS011;16488;52.396;10.696;2023-01-28T13:04:33;5.68;;;2.58;;
29550;SDS011;16488;52.396;10.696;2023-01-28T13:10:08;6.20;;;2.70;;
29550;SDS011;16488;52.396;10.696;2023-01-28T13:12:43;5.00;;;3.20;;
29550;SDS011;16488;52.396;10.696;2023-01-28T13:15:11;5.80;;;2.50;;
29550;SDS011;16488;52.396;10.696;2023-01-28T13:17:38;7.25;;;2.35;;
29550;SDS011;16488;52.396;10.696;2023-01-28T13:20:28;4.05;;;2.28;;
29550;SDS011;16488;52.396;10.696;2023-01-28T13:28:44;3.78;;;2.55;;
29550;SDS011;16488;52.396;10.696;2023-01-28T13:31:34;5.07;;;2.75;;
29550;SDS011;16488;52.396;10.696;2023-01-28T13:34:03;4.40;;;2.92;;
29550;SDS011;16488;52.396;10.696;2023-01-28T13:36:30;6.85;;;4.53;;
29550;SDS011;16488;52.396;10.696;2023-01-28T13:41:44;14.30;;;6.93;;
29550;SDS011;16488;52.396;10.696;2023-01-28T13:44:16;9.45;;;3.30;;
29550;SDS011;16488;52.396;10.696;2023-01-28T13:46:43;5.60;;;2.53;;
29550;SDS011;16488;52.396;10.696;2023-01-28T13:49:09;7.95;;;2.92;;
29550;SDS011;16488;52.396;10.696;2023-01-28T13:51:39;8.85;;;2.53;;
29550;SDS011;16488;52.396;10.696;2023-01-28T13:54:19;6.82;;;2.30;;
29550;SDS011;16488;52.396;10.696;2023-01-28T14:07:17;3.90;;;2.35;;
29550;SDS011;16488;52.396;10.696;2023-01-28T14:12:33;4.03;;;2.13;;
29550;SDS011;16488;52.396;10.696;2023-01-28T14:15:07;2.95;;;2.20;;
29550;SDS011;16488;52.396;10.696;2023-01-28T14:17:50;2.83;;;2.47;;
29550;SDS011;16488;52.396;10.696;2023-01-28T14:22:58;3.25;;;2.42;;
29550;SDS011;16488;52.396;10.696;2023-01-28T14:31:17;4.88;;;2.40;;
29550;SDS011;16488;52.396;10.696;2023-01-28T14:33:52;6.03;;;2.67;;
29550;SDS011;16488;52.396;10.696;2023-01-28T14:36:22;7.35;;;3.97;;
29550;SDS011;16488;52.396;10.696;2023-01-28T14:38:49;4.95;;;3.20;;
29550;SDS011;16488;52.396;10.696;2023-01-28T14:41:20;7.93;;;3.50;;
29550;SDS011;16488;52.396;10.696;2023-01-28T14:43:50;6.43;;;4.00;;
29550;SDS011;16488;52.396;10.696;2023-01-28T14:46:41;7.05;;;3.22;;
29550;SDS011;16488;52.396;10.696;2023-01-28T14:52:09;5.03;;;3.53;;
29550;SDS011;16488;52.396;10.696;2023-01-28T14:55:04;7.15;;;3.97;;
29550;SDS011;16488;52.396;10.696;2023-01-28T15:00:16;5.38;;;3.70;;
29550;SDS011;16488;52.396;10.696;2023-01-28T15:02:47;4.97;;;3.70;;
29550;SDS011;16488;52.396;10.696;2023-01-28T15:05:18;8.88;;;5.07;;
29550;SDS011;16488;52.396;10.696;2023-01-28T15:07:46;6.65;;;4.03;;
29550;SDS011;16488;52.396;10.696;2023-01-28T15:10:15;5.32;;;4.25;;
29550;SDS011;16488;52.396;10.696;2023-01-28T15:12:55;14.70;;;7.75;;
29550;SDS011;16488;52.396;10.696;2023-01-28T15:15:34;37.03;;;7.53;;
29550;SDS011;16488;52.396;10.696;2023-01-28T15:18:03;19.38;;;7.50;;
29550;SDS011;16488;52.396;10.696;2023-01-28T15:20:36;16.83;;;6.82;;
29550;SDS011;16488;52.396;10.696;2023-01-28T15:23:02;13.93;;;6.32;;
29550;SDS011;16488;52.396;10.696;2023-01-28T15:25:31;26.08;;;8.32;;
29550;SDS011;16488;52.396;10.696;2023-01-28T15:27:58;14.32;;;6.18;;
29550;SDS011;16488;52.396;10.696;2023-01-28T15:30:29;11.20;;;4.40;;
29550;SDS011;16488;52.396;10.696;2023-01-28T15:33:00;10.50;;;5.15;;
29550;SDS011;16488;52.396;10.696;2023-01-28T15:35:29;6.43;;;4.93;;
29550;SDS011;16488;52.396;10.696;2023-01-28T15:37:55;10.77;;;6.63;;
29550;SDS011;16488;52.396;10.696;2023-01-28T15:40:21;9.18;;;6.20;;
29550;SDS011;16488;52.396;10.696;2023-01-28T15:42:48;11.07;;;5.60;;
29550;SDS011;16488;52.396;10.696;2023-01-28T15:45:15;8.43;;;5.88;;
29550;SDS011;16488;52.396;10.696;2023-01-28T15:47:44;9.38;;;5.55;;
29550;SDS011;16488;52.396;10.696;2023-01-28T15:50:20;8.25;;;5.18;;
29550;SDS011;16488;52.396;10.696;2023-01-28T15:52:48;8.68;;;5.47;;
29550;SDS011;16488;52.396;10.696;2023-01-28T15:57:51;12.57;;;5.85;;
29550;SDS011;16488;52.396;10.696;2023-01-28T16:00:20;7.63;;;5.13;;
29550;SDS011;16488;52.396;10.696;2023-01-28T16:02:49;12.00;;;6.03;;
29550;SDS011;16488;52.396;10.696;2023-01-28T16:05:24;10.57;;;5.25;;
29550;SDS011;16488;52.396;10.696;2023-01-28T16:08:22;9.80;;;5.30;;
29550;SDS011;16488;52.396;10.696;2023-01-28T16:10:57;9.90;;;6.03;;
29550;SDS011;16488;52.396;10.696;2023-01-28T16:13:26;9.75;;;6.38;;
29550;SDS011;16488;52.396;10.696;2023-01-28T16:15:55;19.40;;;7.00;;
29550;SDS011;16488;52.396;10.696;2023-01-28T16:20:53;14.68;;;6.68;;
29550;SDS011;16488;52.396;10.696;2023-01-28T16:23:20;10.15;;;6.38;;
29550;SDS011;16488;52.396;10.696;2023-01-28T16:25:57;12.68;;;7.70;;
29550;SDS011;16488;52.396;10.696;2023-01-28T16:28:29;17.15;;;7.43;;
29550;SDS011;16488;52.396;10.696;2023-01-28T16:30:57;16.20;;;8.45;;
29550;SDS011;16488;52.396;10.696;2023-01-28T16:33:24;23.05;;;10.07;;
29550;SDS011;16488;52.396;10.696;2023-01-28T16:35:50;21.60;;;9.38;;
29550;SDS011;16488;52.396;10.696;2023-01-28T16:38:16;16.10;;;9.18;;
29550;SDS011;16488;52.396;10.696;2023-01-28T16:40:43;11.27;;;7.10;;
29550;SDS011;16488;52.396;10.696;2023-01-28T16:43:10;12.38;;;7.90;;
29550;SDS011;16488;52.396;10.696;2023-01-28T16:45:37;12.57;;;7.88;;
29550;SDS011;16488;52.396;10.696;2023-01-28T16:50:29;16.63;;;8.05;;
29550;SDS011;16488;52.396;10.696;2023-01-28T16:52:56;10.80;;;7.88;;
29550;SDS011;16488;52.396;10.696;2023-01-28T16:55:23;10.90;;;7.63;;
29550;SDS011;16488;52.396;10.696;2023-01-28T17:00:21;15.85;;;7.60;;
29550;SDS011;16488;52.396;10.696;2023-01-28T17:02:49;13.85;;;8.05;;
29550;SDS011;16488;52.396;10.696;2023-01-28T17:05:19;13.23;;;8.00;;
29550;SDS011;16488;52.396;10.696;2023-01-28T17:07:48;17.05;;;9.30;;
29550;SDS011;16488;52.396;10.696;2023-01-28T17:10:14;12.68;;;8.30;;
29550;SDS011;16488;52.396;10.696;2023-01-28T17:12:41;15.73;;;8.82;;
29550;SDS011;16488;52.396;10.696;2023-01-28T17:15:07;13.93;;;8.77;;
29550;SDS011;16488;52.396;10.696;2023-01-28T17:19:58;17.10;;;10.02;;
29550;SDS011;16488;52.396;10.696;2023-01-28T17:22:24;16.33;;;9.43;;
29550;SDS011;16488;52.396;10.696;2023-01-28T17:24:50;21.25;;;10.43;;
29550;SDS011;16488;52.396;10.696;2023-01-28T17:29:41;34.42;;;15.30;;
29550;SDS011;16488;52.396;10.696;2023-01-28T17:34:32;17.45;;;10.30;;
29550;SDS011;16488;52.396;10.696;2023-01-28T17:36:57;17.23;;;10.00;;
29550;SDS011;16488;52.396;10.696;2023-01-28T17:39:23;15.10;;;9.82;;
29550;SDS011;16488;52.396;10.696;2023-01-28T17:44:16;21.25;;;10.55;;
29550;SDS011;16488;52.396;10.696;2023-01-28T17:46:43;22.23;;;9.65;;
29550;SDS011;16488;52.396;10.696;2023-01-28T17:49:09;16.70;;;11.18;;
29550;SDS011;16488;52.396;10.696;2023-01-28T17:54:00;20.10;;;11.07;;